sensor_id;sensor_type;location;lat;lon;timestamp;temperature;humidity
20985;DHT22;10651;47.552;7.606;2023-07-30T06:40:11;20.00;99.90
20985;DHT22;10651;47.552;7.606;2023-07-30T06:42:37;20.00;99.90
20985;DHT22;10651;47.552;7.606;2023-07-30T06:45:03;20.10;99.90
20985;DHT22;10651;47.552;7.606;2023-07-30T06:47:29;20.20;99.90
20985;DHT22;10651;47.552;7.606;2023-07-30T06:49:55;20.30;99.90
20985;DHT22;10651;47.552;7.606;2023-07-30T06:52:21;20.30;99.90
20985;DHT22;10651;47.552;7.606;2023-07-30T06:54:47;20.30;99.90
20985;DHT22;10651;47.552;7.606;2023-07-30T06:57:13;20.30;99.90
20985;DHT22;10651;47.552;7.606;2023-07-30T06:59:38;20.40;99.90
20985;DHT22;10651;47.552;7.606;2023-07-30T07:02:05;20.60;99.90
20985;DHT22;10651;47.552;7.606;2023-07-30T07:04:31;20.70;99.90
20985;DHT22;10651;47.552;7.606;2023-07-30T07:06:57;20.70;99.90
20985;DHT22;10651;47.552;7.606;2023-07-30T07:09:22;20.70;99.90
20985;DHT22;10651;47.552;7.606;2023-07-30T07:11:48;20.70;99.90
20985;DHT22;10651;47.552;7.606;2023-07-30T07:14:14;20.70;99.90
20985;DHT22;10651;47.552;7.606;2023-07-30T07:16:39;20.90;99.90
20985;DHT22;10651;47.552;7.606;2023-07-30T07:19:05;21.00;99.90
20985;DHT22;10651;47.552;7.606;2023-07-30T07:21:31;21.10;99.90
20985;DHT22;10651;47.552;7.606;2023-07-30T07:23:57;21.20;99.90
20985;DHT22;10651;47.552;7.606;2023-07-30T07:26:23;21.30;99.90
20985;DHT22;10651;47.552;7.606;2023-07-30T07:28:49;21.40;99.90
20985;DHT22;10651;47.552;7.606;2023-07-30T07:31:14;21.50;99.90
20985;DHT22;10651;47.552;7.606;2023-07-30T07:33:40;21.50;99.90
20985;DHT22;10651;47.552;7.606;2023-07-30T07:36:07;21.40;99.90
20985;DHT22;10651;47.552;7.606;2023-07-30T07:38:36;21.30;99.90
20985;DHT22;10651;47.552;7.606;2023-07-30T07:41:01;21.30;99.90
20985;DHT22;10651;47.552;7.606;2023-07-30T07:43:27;21.30;99.90
20985;DHT22;10651;47.552;7.606;2023-07-30T07:45:53;21.40;99.90
20985;DHT22;10651;47.552;7.606;2023-07-30T07:48:19;21.40;99.90
20985;DHT22;10651;47.552;7.606;2023-07-30T07:50:45;21.50;99.90
20985;DHT22;10651;47.552;7.606;2023-07-30T07:53:11;21.60;99.90
20985;DHT22;10651;47.552;7.606;2023-07-30T07:55:37;21.50;99.90
20985;DHT22;10651;47.552;7.606;2023-07-30T07:58:03;21.50;99.90
20985;DHT22;10651;47.552;7.606;2023-07-30T08:00:28;21.50;99.90
20985;DHT22;10651;47.552;7.606;2023-07-30T08:02:56;21.40;99.90
20985;DHT22;10651;47.552;7.606;2023-07-30T08:05:22;21.50;99.90
20985;DHT22;10651;47.552;7.606;2023-07-30T08:07:50;21.60;99.90
20985;DHT22;10651;47.552;7.606;2023-07-30T08:10:16;21.60;99.90
20985;DHT22;10651;47.552;7.606;2023-07-30T08:12:42;21.70;99.90
20985;DHT22;10651;47.552;7.606;2023-07-30T08:15:08;21.80;99.90
20985;DHT22;10651;47.552;7.606;2023-07-30T08:17:34;21.90;99.90
20985;DHT22;10651;47.552;7.606;2023-07-30T08:20:00;22.00;99.90
20985;DHT22;10651;47.552;7.606;2023-07-30T08:22:25;22.10;99.90
20985;DHT22;10651;47.552;7.606;2023-07-30T08:24:51;22.30;99.90
20985;DHT22;10651;47.552;7.606;2023-07-30T08:27:17;22.20;99.90
20985;DHT22;10651;47.552;7.606;2023-07-30T08:29:43;21.90;99.90
20985;DHT22;10651;47.552;7.606;2023-07-30T08:32:09;21.70;99.90
20985;DHT22;10651;47.552;7.606;2023-07-30T08:34:35;21.60;99.90
20985;DHT22;10651;47.552;7.606;2023-07-30T08:37:01;21.40;99.90
20985;DHT22;10651;47.552;7.606;2023-07-30T08:39:27;21.40;99.90
20985;DHT22;10651;47.552;7.606;2023-07-30T08:41:53;21.40;99.90
20985;DHT22;10651;47.552;7.606;2023-07-30T08:44:18;21.40;99.90
20985;DHT22;10651;47.552;7.606;2023-07-30T08:46:44;21.50;99.90
20985;DHT22;10651;47.552;7.606;2023-07-30T08:49:10;21.60;99.90
20985;DHT22;10651;47.552;7.606;2023-07-30T08:51:37;21.80;99.90
20985;DHT22;10651;47.552;7.606;2023-07-30T08:54:05;21.80;99.90
20985;DHT22;10651;47.552;7.606;2023-07-30T08:56:33;21.80;99.90
20985;DHT22;10651;47.552;7.606;2023-07-30T08:58:59;21.80;99.90
20985;DHT22;10651;47.552;7.606;2023-07-30T09:01:30;21.90;99.90
20985;DHT22;10651;47.552;7.606;2023-07-30T09:04:00;22.00;99.90
20985;DHT22;10651;47.552;7.606;2023-07-30T09:06:26;22.00;99.90
20985;DHT22;10651;47.552;7.606;2023-07-30T09:08:53;22.00;99.90
20985;DHT22;10651;47.552;7.606;2023-07-30T09:11:18;22.00;99.90
20985;DHT22;10651;47.552;7.606;2023-07-30T09:13:46;22.00;99.90
20985;DHT22;10651;47.552;7.606;2023-07-30T09:16:13;22.00;99.90
20985;DHT22;10651;47.552;7.606;2023-07-30T09:18:46;22.00;99.90
20985;DHT22;10651;47.552;7.606;2023-07-30T09:21:12;22.10;99.90
20985;DHT22;10651;47.552;7.606;2023-07-30T09:23:46;22.20;99.90
20985;DHT22;10651;47.552;7.606;2023-07-30T09:26:13;22.30;99.90
20985;DHT22;10651;47.552;7.606;2023-07-30T09:28:42;22.50;99.90
20985;DHT22;10651;47.552;7.606;2023-07-30T09:31:08;22.70;99.90
20985;DHT22;10651;47.552;7.606;2023-07-30T09:33:35;22.80;99.90
20985;DHT22;10651;47.552;7.606;2023-07-30T09:36:04;23.00;99.90
20985;DHT22;10651;47.552;7.606;2023-07-30T09:38:32;23.10;99.90
20985;DHT22;10651;47.552;7.606;2023-07-30T09:41:04;23.30;99.90
20985;DHT22;10651;47.552;7.606;2023-07-30T09:46:04;23.10;99.90
20985;DHT22;10651;47.552;7.606;2023-07-30T09:48:32;23.30;99.90
20985;DHT22;10651;47.552;7.606;2023-07-30T09:51:03;23.40;99.90
20985;DHT22;10651;47.552;7.606;2023-07-30T09:53:32;23.70;99.90
20985;DHT22;10651;47.552;7.606;2023-07-30T09:56:02;23.80;99.90
20985;DHT22;10651;47.552;7.606;2023-07-30T09:58:29;23.90;99.90
20985;DHT22;10651;47.552;7.606;2023-07-30T10:00:58;24.00;99.90
20985;DHT22;10651;47.552;7.606;2023-07-30T10:03:26;24.10;99.90
20985;DHT22;10651;47.552;7.606;2023-07-30T10:05:55;24.10;99.90
20985;DHT22;10651;47.552;7.606;2023-07-30T10:08:27;24.20;99.90
20985;DHT22;10651;47.552;7.606;2023-07-30T10:10:54;24.30;99.90
20985;DHT22;10651;47.552;7.606;2023-07-30T10:13:22;24.30;99.90
20985;DHT22;10651;47.552;7.606;2023-07-30T10:15:48;24.20;99.90
20985;DHT22;10651;47.552;7.606;2023-07-30T10:18:14;24.10;99.90
20985;DHT22;10651;47.552;7.606;2023-07-30T10:20:40;24.10;99.90
20985;DHT22;10651;47.552;7.606;2023-07-30T10:23:06;23.90;99.90
20985;DHT22;10651;47.552;7.606;2023-07-30T10:25:49;23.80;99.90
20985;DHT22;10651;47.552;7.606;2023-07-30T10:28:32;23.90;99.90
20985;DHT22;10651;47.552;7.606;2023-07-30T10:31:03;24.10;99.90
20985;DHT22;10651;47.552;7.606;2023-07-30T10:33:53;24.30;99.90
20985;DHT22;10651;47.552;7.606;2023-07-30T10:36:32;24.50;99.90
20985;DHT22;10651;47.552;7.606;2023-07-30T10:39:14;24.50;99.90
20985;DHT22;10651;47.552;7.606;2023-07-30T10:41:41;24.50;99.90
20985;DHT22;10651;47.552;7.606;2023-07-30T10:44:24;24.40;99.90
20985;DHT22;10651;47.552;7.606;2023-07-30T10:46:51;24.30;99.90
20985;DHT22;10651;47.552;7.606;2023-07-30T10:49:18;24.30;99.90
20985;DHT22;10651;47.552;7.606;2023-07-30T10:51:43;24.20;99.90
20985;DHT22;10651;47.552;7.606;2023-07-30T10:54:09;24.20;99.90
20985;DHT22;10651;47.552;7.606;2023-07-30T10:56:38;24.50;99.90
20985;DHT22;10651;47.552;7.606;2023-07-30T10:59:05;24.60;99.90
20985;DHT22;10651;47.552;7.606;2023-07-30T11:01:40;24.70;99.90
20985;DHT22;10651;47.552;7.606;2023-07-30T11:04:10;24.60;99.90
20985;DHT22;10651;47.552;7.606;2023-07-30T11:06:36;24.70;99.90
20985;DHT22;10651;47.552;7.606;2023-07-30T11:09:02;24.70;99.90
20985;DHT22;10651;47.552;7.606;2023-07-30T11:11:28;24.70;99.90
20985;DHT22;10651;47.552;7.606;2023-07-30T11:13:54;24.80;99.90
20985;DHT22;10651;47.552;7.606;2023-07-30T11:16:20;24.90;99.90
20985;DHT22;10651;47.552;7.606;2023-07-30T11:18:47;25.10;99.90
20985;DHT22;10651;47.552;7.606;2023-07-30T11:21:16;25.10;99.90
20985;DHT22;10651;47.552;7.606;2023-07-30T11:23:42;25.10;99.90
20985;DHT22;10651;47.552;7.606;2023-07-30T11:26:12;25.20;99.90
20985;DHT22;10651;47.552;7.606;2023-07-30T11:28:39;25.30;99.90
20985;DHT22;10651;47.552;7.606;2023-07-30T11:31:14;25.30;99.90
20985;DHT22;10651;47.552;7.606;2023-07-30T11:33:45;25.40;99.90
20985;DHT22;10651;47.552;7.606;2023-07-30T11:36:22;25.50;99.90
20985;DHT22;10651;47.552;7.606;2023-07-30T11:38:51;25.30;99.90
20985;DHT22;10651;47.552;7.606;2023-07-30T11:41:19;25.40;99.90
20985;DHT22;10651;47.552;7.606;2023-07-30T11:43:45;25.60;99.90
20985;DHT22;10651;47.552;7.606;2023-07-30T11:46:18;25.50;99.90
20985;DHT22;10651;47.552;7.606;2023-07-30T11:48:52;25.50;99.90
20985;DHT22;10651;47.552;7.606;2023-07-30T11:51:23;25.60;99.90
20985;DHT22;10651;47.552;7.606;2023-07-30T11:56:25;25.60;99.90
20985;DHT22;10651;47.552;7.606;2023-07-30T11:59:01;25.60;99.90
20985;DHT22;10651;47.552;7.606;2023-07-30T12:01:31;25.60;99.90
20985;DHT22;10651;47.552;7.606;2023-07-30T12:03:59;25.70;99.90
20985;DHT22;10651;47.552;7.606;2023-07-30T12:06:39;25.80;99.90
20985;DHT22;10651;47.552;7.606;2023-07-30T12:09:16;25.80;99.90
20985;DHT22;10651;47.552;7.606;2023-07-30T12:14:19;25.80;99.90
20985;DHT22;10651;47.552;7.606;2023-07-30T12:16:45;25.90;99.90
20985;DHT22;10651;47.552;7.606;2023-07-30T12:19:11;25.90;99.90
20985;DHT22;10651;47.552;7.606;2023-07-30T12:21:37;26.00;99.90
20985;DHT22;10651;47.552;7.606;2023-07-30T12:24:05;26.10;99.90
20985;DHT22;10651;47.552;7.606;2023-07-30T12:26:31;26.30;99.90
20985;DHT22;10651;47.552;7.606;2023-07-30T12:28:57;26.30;99.90
20985;DHT22;10651;47.552;7.606;2023-07-30T12:31:23;26.20;99.90
20985;DHT22;10651;47.552;7.606;2023-07-30T12:33:48;26.40;99.90
20985;DHT22;10651;47.552;7.606;2023-07-30T12:36:14;26.50;99.90
20985;DHT22;10651;47.552;7.606;2023-07-30T12:38:40;25.90;99.90
20985;DHT22;10651;47.552;7.606;2023-07-30T12:41:06;26.00;99.90
20985;DHT22;10651;47.552;7.606;2023-07-30T12:43:31;26.30;99.90
20985;DHT22;10651;47.552;7.606;2023-07-30T12:45:57;26.40;99.90
20985;DHT22;10651;47.552;7.606;2023-07-30T12:48:23;26.70;99.90
20985;DHT22;10651;47.552;7.606;2023-07-30T12:50:48;26.50;99.00
20985;DHT22;10651;47.552;7.606;2023-07-30T12:53:14;26.40;98.30
20985;DHT22;10651;47.552;7.606;2023-07-30T12:55:40;26.40;98.90
20985;DHT22;10651;47.552;7.606;2023-07-30T12:58:06;26.60;99.90
20985;DHT22;10651;47.552;7.606;2023-07-30T13:00:33;26.70;99.30
20985;DHT22;10651;47.552;7.606;2023-07-30T13:02:59;26.70;99.90
20985;DHT22;10651;47.552;7.606;2023-07-30T13:05:25;26.60;99.10
20985;DHT22;10651;47.552;7.606;2023-07-30T13:07:51;26.70;99.90
20985;DHT22;10651;47.552;7.606;2023-07-30T13:10:17;26.70;99.00
20985;DHT22;10651;47.552;7.606;2023-07-30T13:12:43;26.70;98.20
20985;DHT22;10651;47.552;7.606;2023-07-30T13:15:09;26.80;98.90
20985;DHT22;10651;47.552;7.606;2023-07-30T13:17:35;26.60;99.80
20985;DHT22;10651;47.552;7.606;2023-07-30T13:20:01;26.80;99.90
20985;DHT22;10651;47.552;7.606;2023-07-30T13:22:26;26.70;99.90
20985;DHT22;10651;47.552;7.606;2023-07-30T13:24:52;26.80;99.90
20985;DHT22;10651;47.552;7.606;2023-07-30T13:27:18;27.00;99.90
20985;DHT22;10651;47.552;7.606;2023-07-30T13:29:44;27.10;99.90
20985;DHT22;10651;47.552;7.606;2023-07-30T13:32:10;27.20;99.90
20985;DHT22;10651;47.552;7.606;2023-07-30T13:34:36;27.20;99.90
20985;DHT22;10651;47.552;7.606;2023-07-30T13:37:02;27.20;99.90
20985;DHT22;10651;47.552;7.606;2023-07-30T13:39:29;27.40;99.90
20985;DHT22;10651;47.552;7.606;2023-07-30T13:41:55;27.00;99.90
20985;DHT22;10651;47.552;7.606;2023-07-30T13:44:21;26.80;99.90
20985;DHT22;10651;47.552;7.606;2023-07-30T13:46:48;26.70;99.90
20985;DHT22;10651;47.552;7.606;2023-07-30T13:49:13;26.30;99.90
20985;DHT22;10651;47.552;7.606;2023-07-30T13:51:39;26.40;99.90
20985;DHT22;10651;47.552;7.606;2023-07-30T13:54:05;27.20;99.90
20985;DHT22;10651;47.552;7.606;2023-07-30T13:56:34;27.40;99.90
20985;DHT22;10651;47.552;7.606;2023-07-30T13:58:59;27.70;99.90
20985;DHT22;10651;47.552;7.606;2023-07-30T14:01:26;27.80;99.60
20985;DHT22;10651;47.552;7.606;2023-07-30T14:03:51;27.30;99.90
20985;DHT22;10651;47.552;7.606;2023-07-30T14:06:17;27.20;99.90
20985;DHT22;10651;47.552;7.606;2023-07-30T14:08:43;27.30;99.90
20985;DHT22;10651;47.552;7.606;2023-07-30T14:11:09;27.20;99.90
20985;DHT22;10651;47.552;7.606;2023-07-30T14:13:35;27.00;99.90
20985;DHT22;10651;47.552;7.606;2023-07-30T14:16:01;26.60;99.90
20985;DHT22;10651;47.552;7.606;2023-07-30T14:18:26;26.50;99.90
20985;DHT22;10651;47.552;7.606;2023-07-30T14:20:55;26.20;99.90
20985;DHT22;10651;47.552;7.606;2023-07-30T14:23:21;25.90;99.90
20985;DHT22;10651;47.552;7.606;2023-07-30T14:25:47;25.90;99.90
20985;DHT22;10651;47.552;7.606;2023-07-30T14:28:13;25.90;99.90
20985;DHT22;10651;47.552;7.606;2023-07-30T14:30:40;25.90;99.90
20985;DHT22;10651;47.552;7.606;2023-07-30T14:33:10;26.20;99.90
20985;DHT22;10651;47.552;7.606;2023-07-30T14:35:36;26.50;99.90
20985;DHT22;10651;47.552;7.606;2023-07-30T14:38:04;26.60;99.90
20985;DHT22;10651;47.552;7.606;2023-07-30T14:40:30;26.80;99.90
20985;DHT22;10651;47.552;7.606;2023-07-30T14:42:56;26.90;99.90
20985;DHT22;10651;47.552;7.606;2023-07-30T14:45:22;26.70;99.90
20985;DHT22;10651;47.552;7.606;2023-07-30T14:47:48;26.60;99.90
20985;DHT22;10651;47.552;7.606;2023-07-30T14:50:14;26.50;99.90
20985;DHT22;10651;47.552;7.606;2023-07-30T14:52:39;26.40;99.90
20985;DHT22;10651;47.552;7.606;2023-07-30T14:55:05;26.20;99.90
20985;DHT22;10651;47.552;7.606;2023-07-30T14:57:31;26.30;99.90
20985;DHT22;10651;47.552;7.606;2023-07-30T14:59:59;26.40;99.90
20985;DHT22;10651;47.552;7.606;2023-07-30T15:02:26;26.60;99.90
20985;DHT22;10651;47.552;7.606;2023-07-30T15:04:54;26.70;99.90
20985;DHT22;10651;47.552;7.606;2023-07-30T15:07:20;26.60;99.90
20985;DHT22;10651;47.552;7.606;2023-07-30T15:09:51;26.70;99.90
20985;DHT22;10651;47.552;7.606;2023-07-30T15:12:20;27.00;99.90
20985;DHT22;10651;47.552;7.606;2023-07-30T15:14:46;26.90;99.90
20985;DHT22;10651;47.552;7.606;2023-07-30T15:17:12;26.90;99.90
20985;DHT22;10651;47.552;7.606;2023-07-30T15:19:38;26.60;99.90
20985;DHT22;10651;47.552;7.606;2023-07-30T15:22:04;26.50;99.90
20985;DHT22;10651;47.552;7.606;2023-07-30T15:24:31;26.80;99.90
20985;DHT22;10651;47.552;7.606;2023-07-30T15:26:56;26.70;99.90
20985;DHT22;10651;47.552;7.606;2023-07-30T15:29:22;26.70;99.90
20985;DHT22;10651;47.552;7.606;2023-07-30T15:31:52;26.90;99.90
20985;DHT22;10651;47.552;7.606;2023-07-30T15:34:18;27.10;99.90
20985;DHT22;10651;47.552;7.606;2023-07-30T15:36:44;27.00;99.90
20985;DHT22;10651;47.552;7.606;2023-07-30T15:39:10;27.00;99.90
20985;DHT22;10651;47.552;7.606;2023-07-30T15:41:36;26.70;99.90
20985;DHT22;10651;47.552;7.606;2023-07-30T15:44:02;26.60;99.90
20985;DHT22;10651;47.552;7.606;2023-07-30T15:46:31;26.50;99.90
20985;DHT22;10651;47.552;7.606;2023-07-30T15:48:57;26.10;99.90
20985;DHT22;10651;47.552;7.606;2023-07-30T15:51:23;26.10;99.90
20985;DHT22;10651;47.552;7.606;2023-07-30T15:53:50;25.80;99.90
20985;DHT22;10651;47.552;7.606;2023-07-30T15:56:16;25.70;99.90
20985;DHT22;10651;47.552;7.606;2023-07-30T15:58:42;25.90;99.90
20985;DHT22;10651;47.552;7.606;2023-07-30T16:01:08;25.90;99.90
20985;DHT22;10651;47.552;7.606;2023-07-30T16:03:38;25.90;99.90
20985;DHT22;10651;47.552;7.606;2023-07-30T16:06:07;26.00;99.90
20985;DHT22;10651;47.552;7.606;2023-07-30T16:08:35;26.10;99.90
20985;DHT22;10651;47.552;7.606;2023-07-30T16:11:19;26.10;99.90
20985;DHT22;10651;47.552;7.606;2023-07-30T16:13:45;26.10;99.90
20985;DHT22;10651;47.552;7.606;2023-07-30T16:16:15;26.10;99.90
20985;DHT22;10651;47.552;7.606;2023-07-30T16:18:44;26.00;99.90
20985;DHT22;10651;47.552;7.606;2023-07-30T16:21:11;25.90;99.90
20985;DHT22;10651;47.552;7.606;2023-07-30T16:23:37;25.70;99.90
20985;DHT22;10651;47.552;7.606;2023-07-30T16:26:05;25.80;99.90
20985;DHT22;10651;47.552;7.606;2023-07-30T16:28:32;25.90;99.90
20985;DHT22;10651;47.552;7.606;2023-07-30T16:30:58;25.60;99.90
20985;DHT22;10651;47.552;7.606;2023-07-30T16:33:23;25.50;99.90
20985;DHT22;10651;47.552;7.606;2023-07-30T16:35:50;25.50;99.90
20985;DHT22;10651;47.552;7.606;2023-07-30T16:38:16;25.50;99.90
20985;DHT22;10651;47.552;7.606;2023-07-30T16:40:43;25.60;99.90
20985;DHT22;10651;47.552;7.606;2023-07-30T16:43:09;25.50;99.90
20985;DHT22;10651;47.552;7.606;2023-07-30T16:45:35;25.40;99.90
20985;DHT22;10651;47.552;7.606;2023-07-30T16:48:01;25.30;99.90
20985;DHT22;10651;47.552;7.606;2023-07-30T16:50:28;25.30;99.90
20985;DHT22;10651;47.552;7.606;2023-07-30T16:52:56;25.30;99.90
20985;DHT22;10651;47.552;7.606;2023-07-30T16:55:22;25.10;99.90
20985;DHT22;10651;47.552;7.606;2023-07-30T16:57:48;25.10;99.90
20985;DHT22;10651;47.552;7.606;2023-07-30T17:00:14;25.10;99.90
20985;DHT22;10651;47.552;7.606;2023-07-30T17:02:40;25.10;99.90
20985;DHT22;10651;47.552;7.606;2023-07-30T17:05:06;25.10;99.90
20985;DHT22;10651;47.552;7.606;2023-07-30T17:07:32;25.00;99.90
20985;DHT22;10651;47.552;7.606;2023-07-30T17:09:58;24.80;99.90
20985;DHT22;10651;47.552;7.606;2023-07-30T17:12:25;24.70;99.90
20985;DHT22;10651;47.552;7.606;2023-07-30T17:14:50;24.60;99.90
20985;DHT22;10651;47.552;7.606;2023-07-30T17:17:16;24.50;99.90
20985;DHT22;10651;47.552;7.606;2023-07-30T17:19:42;24.40;99.90
20985;DHT22;10651;47.552;7.606;2023-07-30T17:22:08;24.30;99.90
20985;DHT22;10651;47.552;7.606;2023-07-30T17:24:35;24.20;99.90
20985;DHT22;10651;47.552;7.606;2023-07-30T17:27:04;24.30;99.90
20985;DHT22;10651;47.552;7.606;2023-07-30T17:29:29;24.20;99.90
20985;DHT22;10651;47.552;7.606;2023-07-30T17:31:55;24.10;99.90
20985;DHT22;10651;47.552;7.606;2023-07-30T17:34:21;24.00;99.90
20985;DHT22;10651;47.552;7.606;2023-07-30T17:36:47;24.00;99.90
20985;DHT22;10651;47.552;7.606;2023-07-30T17:39:13;23.90;99.90
20985;DHT22;10651;47.552;7.606;2023-07-30T17:41:38;23.90;99.90
20985;DHT22;10651;47.552;7.606;2023-07-30T17:44:04;23.80;99.90
20985;DHT22;10651;47.552;7.606;2023-07-30T17:46:30;23.70;99.90
20985;DHT22;10651;47.552;7.606;2023-07-30T17:48:56;23.70;99.90
20985;DHT22;10651;47.552;7.606;2023-07-30T17:51:22;23.70;99.90
20985;DHT22;10651;47.552;7.606;2023-07-30T17:53:48;23.70;99.90
20985;DHT22;10651;47.552;7.606;2023-07-30T17:56:14;23.70;99.90
20985;DHT22;10651;47.552;7.606;2023-07-30T17:58:39;23.80;99.90
20985;DHT22;10651;47.552;7.606;2023-07-30T18:01:06;23.70;99.90
20985;DHT22;10651;47.552;7.606;2023-07-30T18:03:32;23.50;99.90
20985;DHT22;10651;47.552;7.606;2023-07-30T18:05:59;23.50;99.90
20985;DHT22;10651;47.552;7.606;2023-07-30T18:08:28;23.40;99.90
20985;DHT22;10651;47.552;7.606;2023-07-30T18:10:55;23.30;99.90
20985;DHT22;10651;47.552;7.606;2023-07-30T18:13:24;23.30;99.90
20985;DHT22;10651;47.552;7.606;2023-07-30T18:15:50;23.20;99.90
20985;DHT22;10651;47.552;7.606;2023-07-30T18:18:18;23.20;99.90
20985;DHT22;10651;47.552;7.606;2023-07-30T18:20:46;23.20;99.90
20985;DHT22;10651;47.552;7.606;2023-07-30T18:23:12;23.10;99.90
20985;DHT22;10651;47.552;7.606;2023-07-30T18:25:38;23.10;99.90
20985;DHT22;10651;47.552;7.606;2023-07-30T18:28:03;23.10;99.90
20985;DHT22;10651;47.552;7.606;2023-07-30T18:30:35;23.00;99.90
20985;DHT22;10651;47.552;7.606;2023-07-30T18:33:01;22.90;99.90
20985;DHT22;10651;47.552;7.606;2023-07-30T18:35:26;22.80;99.90
20985;DHT22;10651;47.552;7.606;2023-07-30T18:37:52;22.80;99.90
20985;DHT22;10651;47.552;7.606;2023-07-30T18:40:21;22.80;99.90
20985;DHT22;10651;47.552;7.606;2023-07-30T18:42:48;22.80;99.90
20985;DHT22;10651;47.552;7.606;2023-07-30T18:45:15;22.80;99.90
20985;DHT22;10651;47.552;7.606;2023-07-30T18:47:41;22.70;99.90
20985;DHT22;10651;47.552;7.606;2023-07-30T18:50:10;22.70;99.90
20985;DHT22;10651;47.552;7.606;2023-07-30T18:52:37;22.70;99.90
20985;DHT22;10651;47.552;7.606;2023-07-30T18:55:03;22.60;99.90
20985;DHT22;10651;47.552;7.606;2023-07-30T18:57:32;22.60;99.90
20985;DHT22;10651;47.552;7.606;2023-07-30T18:59:58;22.50;99.90
20985;DHT22;10651;47.552;7.606;2023-07-30T19:02:23;22.50;99.90
20985;DHT22;10651;47.552;7.606;2023-07-30T19:04:49;22.50;99.90
20985;DHT22;10651;47.552;7.606;2023-07-30T19:07:15;22.40;99.90
20985;DHT22;10651;47.552;7.606;2023-07-30T19:09:41;22.40;99.90
20985;DHT22;10651;47.552;7.606;2023-07-30T19:12:07;22.40;99.90
20985;DHT22;10651;47.552;7.606;2023-07-30T19:14:34;22.30;99.90
20985;DHT22;10651;47.552;7.606;2023-07-30T19:17:02;22.40;99.90
20985;DHT22;10651;47.552;7.606;2023-07-30T19:19:34;22.30;99.90
20985;DHT22;10651;47.552;7.606;2023-07-30T19:22:00;22.30;99.90
20985;DHT22;10651;47.552;7.606;2023-07-30T19:24:30;22.20;99.90
20985;DHT22;10651;47.552;7.606;2023-07-30T19:27:03;22.10;99.90
20985;DHT22;10651;47.552;7.606;2023-07-30T19:29:38;22.10;99.90
20985;DHT22;10651;47.552;7.606;2023-07-30T19:32:09;22.00;99.90
20985;DHT22;10651;47.552;7.606;2023-07-30T19:34:37;22.00;99.90
20985;DHT22;10651;47.552;7.606;2023-07-30T19:37:03;22.00;99.90
20985;DHT22;10651;47.552;7.606;2023-07-30T19:39:32;22.00;99.90
20985;DHT22;10651;47.552;7.606;2023-07-30T19:41:58;21.90;99.90
20985;DHT22;10651;47.552;7.606;2023-07-30T19:44:24;21.90;99.90
20985;DHT22;10651;47.552;7.606;2023-07-30T19:46:53;21.90;99.90
20985;DHT22;10651;47.552;7.606;2023-07-30T19:49:19;21.90;99.90
20985;DHT22;10651;47.552;7.606;2023-07-30T19:51:45;21.80;99.90
20985;DHT22;10651;47.552;7.606;2023-07-30T19:54:12;21.80;99.90
20985;DHT22;10651;47.552;7.606;2023-07-30T19:56:38;21.80;99.90
20985;DHT22;10651;47.552;7.606;2023-07-30T19:59:04;21.70;99.90
20985;DHT22;10651;47.552;7.606;2023-07-30T20:01:30;21.70;99.90
20985;DHT22;10651;47.552;7.606;2023-07-30T20:03:56;21.80;99.90
20985;DHT22;10651;47.552;7.606;2023-07-30T20:06:22;21.70;99.90
20985;DHT22;10651;47.552;7.606;2023-07-30T20:08:48;21.70;99.90
20985;DHT22;10651;47.552;7.606;2023-07-30T20:11:14;21.70;99.90
20985;DHT22;10651;47.552;7.606;2023-07-30T20:13:42;21.70;99.90
20985;DHT22;10651;47.552;7.606;2023-07-30T20:16:12;21.60;99.90
20985;DHT22;10651;47.552;7.606;2023-07-30T20:18:43;21.60;99.90
20985;DHT22;10651;47.552;7.606;2023-07-30T20:21:10;21.60;99.90
20985;DHT22;10651;47.552;7.606;2023-07-30T20:23:36;21.50;99.90
20985;DHT22;10651;47.552;7.606;2023-07-30T20:26:16;21.50;99.90
20985;DHT22;10651;47.552;7.606;2023-07-30T20:28:51;21.50;99.90
20985;DHT22;10651;47.552;7.606;2023-07-30T20:31:18;21.40;99.90
20985;DHT22;10651;47.552;7.606;2023-07-30T20:33:45;21.40;99.90
20985;DHT22;10651;47.552;7.606;2023-07-30T20:36:11;21.40;99.90
20985;DHT22;10651;47.552;7.606;2023-07-30T20:38:37;21.30;99.90
20985;DHT22;10651;47.552;7.606;2023-07-30T20:41:03;21.30;99.90
20985;DHT22;10651;47.552;7.606;2023-07-30T20:43:29;21.30;99.90
20985;DHT22;10651;47.552;7.606;2023-07-30T20:45:55;21.20;99.90
20985;DHT22;10651;47.552;7.606;2023-07-30T20:48:23;21.10;99.90
20985;DHT22;10651;47.552;7.606;2023-07-30T20:50:51;21.10;99.90
20985;DHT22;10651;47.552;7.606;2023-07-30T20:53:20;21.00;99.90
20985;DHT22;10651;47.552;7.606;2023-07-30T20:55:49;21.00;99.90
20985;DHT22;10651;47.552;7.606;2023-07-30T20:58:15;21.00;99.90
20985;DHT22;10651;47.552;7.606;2023-07-30T21:00:44;21.00;99.90
20985;DHT22;10651;47.552;7.606;2023-07-30T21:03:13;21.00;99.90
20985;DHT22;10651;47.552;7.606;2023-07-30T21:05:39;21.00;99.90
20985;DHT22;10651;47.552;7.606;2023-07-30T21:08:12;21.00;99.90
20985;DHT22;10651;47.552;7.606;2023-07-30T21:10:40;20.90;99.90
20985;DHT22;10651;47.552;7.606;2023-07-30T21:13:06;20.90;99.90
20985;DHT22;10651;47.552;7.606;2023-07-30T21:15:35;20.90;99.90
20985;DHT22;10651;47.552;7.606;2023-07-30T21:18:01;20.80;99.90
20985;DHT22;10651;47.552;7.606;2023-07-30T21:20:27;20.80;99.90
20985;DHT22;10651;47.552;7.606;2023-07-30T21:22:56;20.70;99.90
20985;DHT22;10651;47.552;7.606;2023-07-30T21:25:22;20.70;99.90
20985;DHT22;10651;47.552;7.606;2023-07-30T21:27:48;20.70;99.90
